createdAt,value
2023-01-29T00:00:10.466Z,2.00
2023-01-29T00:04:14.718Z,1.90
2023-01-29T00:08:17.488Z,2.00
2023-01-29T00:12:20.272Z,1.90
2023-01-29T00:16:23.065Z,1.90
2023-01-29T00:20:27.216Z,1.90
2023-01-29T00:24:30.201Z,1.90
2023-01-29T00:28:33.208Z,1.90
2023-01-29T00:32:36.765Z,1.90
2023-01-29T00:36:41.107Z,1.90
2023-01-29T00:41:01.303Z,1.90
2023-01-29T00:45:04.103Z,1.90
2023-01-29T00:49:07.027Z,1.90
2023-01-29T00:53:11.152Z,1.90
2023-01-29T00:57:13.945Z,1.90
2023-01-29T01:01:16.911Z,1.90
2023-01-29T01:05:20.046Z,1.90
2023-01-29T01:09:41.889Z,1.90
2023-01-29T01:13:44.680Z,1.90
2023-01-29T01:17:48.923Z,1.90
2023-01-29T01:21:51.721Z,1.80
2023-01-29T01:25:56.028Z,1.90
2023-01-29T01:29:58.816Z,1.80
2023-01-29T01:34:01.591Z,1.90
2023-01-29T01:38:04.382Z,1.80
2023-01-29T01:42:11.770Z,1.80
2023-01-29T01:46:15.076Z,1.80
2023-01-29T01:50:19.679Z,1.80
2023-01-29T01:54:24.865Z,1.80
2023-01-29T01:58:31.178Z,1.80
2023-01-29T02:02:51.423Z,1.80
2023-01-29T02:07:12.584Z,1.80
2023-01-29T02:11:15.392Z,1.80
2023-01-29T02:15:19.560Z,1.80
2023-01-29T02:19:28.278Z,1.80
2023-01-29T02:23:58.172Z,1.80
2023-01-29T02:28:13.360Z,1.80
2023-01-29T02:32:21.486Z,1.80
2023-01-29T02:36:30.111Z,1.80
2023-01-29T02:40:36.927Z,1.80
2023-01-29T02:44:43.245Z,1.70
2023-01-29T02:48:51.175Z,1.70
2023-01-29T02:52:59.081Z,1.80
2023-01-29T02:57:04.392Z,1.80
2023-01-29T03:01:10.909Z,1.80
2023-01-29T03:05:17.601Z,1.80
2023-01-29T03:09:22.845Z,1.80
2023-01-29T03:13:30.300Z,1.80
2023-01-29T03:17:36.572Z,1.80
2023-01-29T03:21:55.398Z,1.80
2023-01-29T03:26:17.758Z,1.80
2023-01-29T03:30:38.895Z,1.80
2023-01-29T03:34:45.987Z,1.80
2023-01-29T03:38:48.824Z,1.70
2023-01-29T03:42:57.035Z,1.70
2023-01-29T03:47:07.235Z,1.70
2023-01-29T03:51:17.643Z,1.70
2023-01-29T03:55:23.536Z,1.70
2023-01-29T03:59:32.541Z,1.70
2023-01-29T04:03:36.640Z,1.70
2023-01-29T04:07:41.776Z,1.70
2023-01-29T04:11:46.556Z,1.70
2023-01-29T04:15:51.790Z,1.70
2023-01-29T04:19:54.781Z,1.70
2023-01-29T04:23:58.994Z,1.70
2023-01-29T04:28:06.203Z,1.70
2023-01-29T04:32:14.349Z,1.70
2023-01-29T04:36:21.934Z,1.70
2023-01-29T04:40:29.384Z,1.70
2023-01-29T04:44:34.537Z,1.70
2023-01-29T04:48:42.902Z,1.70
2023-01-29T04:52:47.945Z,1.70
2023-01-29T04:56:56.291Z,1.70
2023-01-29T05:00:59.935Z,1.60
2023-01-29T05:05:02.790Z,1.60
2023-01-29T05:09:05.746Z,1.60
2023-01-29T05:13:12.132Z,1.60
2023-01-29T05:17:16.785Z,1.60
2023-01-29T05:21:19.983Z,1.60
2023-01-29T05:25:23.913Z,1.60
2023-01-29T05:29:28.047Z,1.60
2023-01-29T05:33:31.767Z,1.60
2023-01-29T05:37:34.575Z,1.60
2023-01-29T05:41:37.425Z,1.60
2023-01-29T05:45:41.583Z,1.60
2023-01-29T05:49:44.345Z,1.60
2023-01-29T05:53:47.158Z,1.60
2023-01-29T05:57:49.948Z,1.60
2023-01-29T06:01:54.144Z,1.60
2023-01-29T06:05:56.955Z,1.60
2023-01-29T06:09:59.721Z,1.60
2023-01-29T06:14:02.531Z,1.60
2023-01-29T06:18:06.767Z,1.60
2023-01-29T06:22:09.551Z,1.60
2023-01-29T06:26:13.776Z,1.60
2023-01-29T06:30:17.286Z,1.60
2023-01-29T06:34:21.760Z,1.70
2023-01-29T06:38:27.935Z,1.70
2023-01-29T06:42:30.868Z,1.70
2023-01-29T06:46:33.651Z,1.70
2023-01-29T06:50:37.802Z,1.70
2023-01-29T06:54:40.613Z,1.70
2023-01-29T06:58:44.159Z,1.70
2023-01-29T07:02:49.834Z,1.70
2023-01-29T07:06:54.115Z,1.60
2023-01-29T07:10:59.981Z,1.60
2023-01-29T07:15:02.874Z,1.60
2023-01-29T07:19:05.689Z,1.60
2023-01-29T07:23:10.282Z,1.60
2023-01-29T07:27:13.099Z,1.60
2023-01-29T07:31:16.098Z,1.60
2023-01-29T07:35:18.974Z,1.60
2023-01-29T07:39:23.157Z,1.60
2023-01-29T07:43:25.965Z,1.60
2023-01-29T07:47:28.751Z,1.60
2023-01-29T07:51:31.633Z,1.60
2023-01-29T07:55:35.781Z,1.60
2023-01-29T07:59:38.589Z,1.60
2023-01-29T08:03:41.394Z,1.60
2023-01-29T08:07:51.478Z,1.60
2023-01-29T08:12:02.444Z,1.60
2023-01-29T08:16:06.860Z,1.60
2023-01-29T08:20:10.564Z,1.60
2023-01-29T08:24:13.868Z,1.60
2023-01-29T08:28:18.211Z,1.60
2023-01-29T08:32:21.310Z,1.60
2023-01-29T08:36:24.188Z,1.60
2023-01-29T08:40:27.395Z,1.60
2023-01-29T08:44:31.583Z,1.60
2023-01-29T08:48:34.432Z,1.70
2023-01-29T08:52:37.209Z,1.70
2023-01-29T08:56:40.094Z,1.70
2023-01-29T09:00:44.207Z,1.70
2023-01-29T09:04:47.327Z,1.70
2023-01-29T09:08:50.102Z,1.70
2023-01-29T09:12:53.086Z,1.80
2023-01-29T09:16:59.197Z,1.70
2023-01-29T09:21:02.638Z,1.80
2023-01-29T09:25:05.907Z,1.80
2023-01-29T09:29:10.365Z,1.80
2023-01-29T09:33:15.682Z,1.80
2023-01-29T09:37:19.640Z,1.80
2023-01-29T09:41:34.808Z,1.80
2023-01-29T09:45:39.840Z,1.80
2023-01-29T09:49:47.073Z,1.90
2023-01-29T09:53:55.046Z,1.90
2023-01-29T09:58:00.380Z,1.90
2023-01-29T10:02:10.147Z,2.00
2023-01-29T10:06:25.887Z,2.00
2023-01-29T10:10:34.257Z,2.10
2023-01-29T10:14:40.900Z,2.10
2023-01-29T10:19:01.409Z,2.10
2023-01-29T10:23:13.838Z,2.10
2023-01-29T10:27:18.056Z,2.10
2023-01-29T10:31:24.565Z,2.10
2023-01-29T10:35:33.932Z,2.10
2023-01-29T10:39:38.149Z,2.10
2023-01-29T10:43:45.193Z,2.20
2023-01-29T10:47:59.770Z,2.20
2023-01-29T10:52:09.606Z,2.20
2023-01-29T10:56:23.211Z,2.20
2023-01-29T11:00:27.536Z,2.20
2023-01-29T11:04:31.272Z,2.30
2023-01-29T11:08:38.507Z,2.30
2023-01-29T11:12:43.876Z,2.30
2023-01-29T11:16:48.356Z,2.30
2023-01-29T11:21:03.839Z,2.40
2023-01-29T11:25:11.217Z,2.40
2023-01-29T11:29:44.249Z,2.40
2023-01-29T11:33:48.623Z,2.40
2023-01-29T11:37:51.564Z,2.50
2023-01-29T11:41:57.009Z,2.50
2023-01-29T11:46:01.731Z,2.50
2023-01-29T11:50:06.539Z,2.60
2023-01-29T11:54:16.234Z,2.60
2023-01-29T11:58:20.748Z,2.60
2023-01-29T12:02:35.550Z,2.60
2023-01-29T12:06:43.281Z,2.70
2023-01-29T12:10:46.088Z,2.70
2023-01-29T12:15:03.409Z,2.70
2023-01-29T12:19:10.762Z,2.70
2023-01-29T12:23:21.451Z,2.70
2023-01-29T12:27:28.329Z,2.80
2023-01-29T12:31:35.637Z,2.80
2023-01-29T12:35:39.596Z,2.80
2023-01-29T12:39:43.763Z,2.80
2023-01-29T12:43:49.130Z,2.80
2023-01-29T12:47:53.713Z,2.80
2023-01-29T12:51:59.931Z,2.80
2023-01-29T12:56:07.035Z,2.90
2023-01-29T13:00:13.158Z,2.90
2023-01-29T13:04:17.607Z,2.90
2023-01-29T13:08:22.843Z,3.00
2023-01-29T13:12:27.822Z,3.00
2023-01-29T13:16:32.766Z,3.00
2023-01-29T13:20:36.419Z,3.10
2023-01-29T13:24:41.101Z,3.10
2023-01-29T13:28:45.693Z,3.10
2023-01-29T13:32:52.758Z,3.10
2023-01-29T13:36:56.213Z,3.10
2023-01-29T13:41:01.585Z,3.10
2023-01-29T13:45:07.228Z,3.10
2023-01-29T13:49:21.382Z,3.10
2023-01-29T13:53:25.524Z,3.10
2023-01-29T13:57:46.876Z,3.10
2023-01-29T14:02:04.521Z,3.10
2023-01-29T14:06:08.705Z,3.10
2023-01-29T14:10:14.835Z,3.10
2023-01-29T14:14:36.250Z,3.10
2023-01-29T14:18:47.053Z,3.10
2023-01-29T14:22:54.593Z,3.10
2023-01-29T14:26:57.466Z,3.10
2023-01-29T14:31:00.637Z,3.10
2023-01-29T14:35:06.217Z,3.10
2023-01-29T14:39:20.257Z,3.10
2023-01-29T14:43:23.059Z,3.10
2023-01-29T14:47:44.632Z,3.10
2023-01-29T14:51:49.485Z,3.10
2023-01-29T14:55:55.375Z,3.10
2023-01-29T14:59:59.688Z,3.10
2023-01-29T15:04:04.920Z,3.10
2023-01-29T15:08:14.393Z,3.00
2023-01-29T15:12:24.364Z,3.00
2023-01-29T15:16:30.480Z,3.00
2023-01-29T15:20:34.067Z,3.00
2023-01-29T15:24:40.769Z,3.00
2023-01-29T15:28:47.073Z,3.00
2023-01-29T15:32:52.137Z,3.00
2023-01-29T15:36:54.954Z,3.00
2023-01-29T15:40:59.668Z,3.00
2023-01-29T15:45:03.980Z,3.00
2023-01-29T15:49:09.342Z,3.00
2023-01-29T15:53:17.514Z,3.00
2023-01-29T15:57:23.951Z,3.00
2023-01-29T16:01:27.441Z,2.90
2023-01-29T16:05:33.139Z,2.90
2023-01-29T16:09:36.496Z,2.90
2023-01-29T16:13:43.548Z,2.90
2023-01-29T16:17:46.816Z,2.80
2023-01-29T16:21:52.969Z,2.80
2023-01-29T16:25:57.469Z,2.80
2023-01-29T16:30:02.233Z,2.80
2023-01-29T16:34:08.145Z,2.80
2023-01-29T16:38:20.537Z,2.80
2023-01-29T16:42:27.014Z,2.80
2023-01-29T16:46:35.613Z,2.80
2023-01-29T16:50:54.044Z,2.80
2023-01-29T16:55:02.301Z,2.80
2023-01-29T16:59:06.237Z,2.70
2023-01-29T17:03:12.916Z,2.70
2023-01-29T17:07:17.301Z,2.70
2023-01-29T17:11:25.455Z,2.70
2023-01-29T17:15:30.607Z,2.70
2023-01-29T17:19:34.767Z,2.70
2023-01-29T17:23:37.708Z,2.70
2023-01-29T17:27:41.763Z,2.70
2023-01-29T17:31:44.597Z,2.70
2023-01-29T17:35:49.270Z,2.70
2023-01-29T17:39:53.154Z,2.70
2023-01-29T17:43:55.905Z,2.70
2023-01-29T17:47:59.284Z,2.70
2023-01-29T17:52:03.435Z,2.70
2023-01-29T17:56:06.690Z,2.70
2023-01-29T18:00:17.483Z,2.70
2023-01-29T18:04:20.394Z,2.70
2023-01-29T18:08:29.674Z,2.60
2023-01-29T18:12:32.484Z,2.60
2023-01-29T18:16:37.400Z,2.50
2023-01-29T18:20:40.440Z,2.50
2023-01-29T18:24:44.887Z,2.50
2023-01-29T18:28:47.646Z,2.40
2023-01-29T18:32:50.870Z,2.50
2023-01-29T18:36:53.655Z,2.40
2023-01-29T18:41:04.409Z,2.40
2023-01-29T18:45:07.869Z,2.30
2023-01-29T18:49:10.929Z,2.30
2023-01-29T18:53:14.286Z,2.30
2023-01-29T18:58:26.084Z,2.30
2023-01-29T19:01:41.371Z,2.30
2023-01-29T19:05:44.223Z,2.30
2023-01-29T19:09:47.029Z,2.30
2023-01-29T19:13:51.126Z,2.30
2023-01-29T19:17:54.164Z,2.30
2023-01-29T19:21:56.990Z,2.30
2023-01-29T19:25:59.870Z,2.40
2023-01-29T19:30:05.689Z,2.40
2023-01-29T19:34:09.229Z,2.40
2023-01-29T19:38:12.059Z,2.40
2023-01-29T19:42:14.981Z,2.40
2023-01-29T19:46:19.136Z,2.40
2023-01-29T19:50:22.395Z,2.40
2023-01-29T19:54:27.460Z,2.40
2023-01-29T19:58:30.552Z,2.40
2023-01-29T20:02:34.727Z,2.40
2023-01-29T20:06:37.775Z,2.40
2023-01-29T20:10:40.786Z,2.50
2023-01-29T20:14:48.677Z,2.50
2023-01-29T20:18:52.946Z,2.50
2023-01-29T20:22:55.786Z,2.50
2023-01-29T20:26:59.867Z,2.50
2023-01-29T20:31:03.163Z,2.50
2023-01-29T20:35:08.210Z,2.50
2023-01-29T20:39:11.118Z,2.50
2023-01-29T20:43:13.937Z,2.50
2023-01-29T20:47:16.842Z,2.50
2023-01-29T20:51:21.262Z,2.60
2023-01-29T20:55:24.136Z,2.60
2023-01-29T20:59:28.942Z,2.60
2023-01-29T21:03:31.831Z,2.60
2023-01-29T21:07:36.702Z,2.60
2023-01-29T21:11:39.589Z,2.70
2023-01-29T21:15:42.935Z,2.70
2023-01-29T21:19:45.892Z,2.70
2023-01-29T21:23:50.340Z,2.70
2023-01-29T21:27:53.386Z,2.80
2023-01-29T21:31:56.344Z,2.80
2023-01-29T21:35:59.607Z,2.80
2023-01-29T21:40:03.757Z,2.80
2023-01-29T21:44:06.806Z,2.90
2023-01-29T21:48:09.669Z,2.90
2023-01-29T21:52:13.594Z,2.90
2023-01-29T21:56:19.901Z,3.00
2023-01-29T22:00:23.056Z,3.00
2023-01-29T22:04:26.009Z,3.00
2023-01-29T22:08:28.867Z,3.00
2023-01-29T22:12:33.284Z,3.10
2023-01-29T22:16:36.224Z,3.10
2023-01-29T22:20:39.336Z,3.10
2023-01-29T22:24:42.171Z,3.10
2023-01-29T22:28:46.421Z,3.20
2023-01-29T22:32:49.321Z,3.20
2023-01-29T22:36:52.557Z,3.20
2023-01-29T22:40:56.087Z,3.20
2023-01-29T22:45:00.470Z,3.20
2023-01-29T22:49:03.386Z,3.30
2023-01-29T22:53:06.873Z,3.30
2023-01-29T22:57:11.044Z,3.30
2023-01-29T23:01:15.242Z,3.40
2023-01-29T23:05:20.925Z,3.40
2023-01-29T23:09:24.119Z,3.40
2023-01-29T23:13:27.012Z,3.40
2023-01-29T23:17:31.183Z,3.40
2023-01-29T23:21:34.023Z,3.40
2023-01-29T23:25:54.299Z,3.40
2023-01-29T23:29:57.129Z,3.40
2023-01-29T23:34:01.278Z,3.40
2023-01-29T23:38:04.078Z,3.50
2023-01-29T23:42:06.954Z,3.50
2023-01-29T23:46:09.766Z,3.50
2023-01-29T23:50:14.097Z,3.50
2023-01-29T23:54:17.392Z,3.50
2023-01-29T23:58:20.180Z,3.60
